createdAt,value
2018-12-13T00:01:37.121Z,20.57
2018-12-13T00:04:05.307Z,21.03
2018-12-13T00:06:33.594Z,21.33
2018-12-13T00:09:01.716Z,19.83
2018-12-13T00:11:29.780Z,19.33
2018-12-13T00:13:57.811Z,20.60
2018-12-13T00:16:25.938Z,20.93
2018-12-13T00:18:53.987Z,28.30
2018-12-13T00:21:22.054Z,20.80
2018-12-13T00:23:50.124Z,20.07
2018-12-13T00:26:18.198Z,25.57
2018-12-13T00:28:46.280Z,19.57
2018-12-13T00:31:14.344Z,20.23
2018-12-13T00:33:42.385Z,19.03
2018-12-13T00:36:10.441Z,20.17
2018-12-13T00:38:38.515Z,19.33
2018-12-13T00:41:06.567Z,19.10
2018-12-13T00:43:34.661Z,20.67
2018-12-13T00:46:02.775Z,19.73
2018-12-13T00:48:30.857Z,20.93
2018-12-13T00:50:58.909Z,19.23
2018-12-13T00:53:26.979Z,20.13
2018-12-13T00:55:55.063Z,20.47
2018-12-13T00:58:23.182Z,20.53
2018-12-13T01:00:51.218Z,24.13
2018-12-13T01:03:19.436Z,19.43
2018-12-13T01:05:47.480Z,20.07
2018-12-13T01:08:15.558Z,19.93
2018-12-13T01:10:43.678Z,20.60
2018-12-13T01:13:11.708Z,22.17
2018-12-13T01:15:39.805Z,22.27
2018-12-13T01:18:07.858Z,24.50
2018-12-13T01:20:35.906Z,21.93
2018-12-13T01:23:03.987Z,21.90
2018-12-13T01:25:32.097Z,23.37
2018-12-13T01:28:00.161Z,23.43
2018-12-13T01:30:28.226Z,21.70
2018-12-13T01:32:56.265Z,22.67
2018-12-13T01:35:24.333Z,24.80
2018-12-13T01:37:52.419Z,24.53
2018-12-13T01:40:20.472Z,25.23
2018-12-13T01:42:48.546Z,26.00
2018-12-13T01:45:16.578Z,24.30
2018-12-13T01:47:44.614Z,19.80
2018-12-13T01:50:12.695Z,16.60
2018-12-13T01:52:40.761Z,15.87
2018-12-13T01:55:08.814Z,15.87
2018-12-13T01:57:36.920Z,15.27
2018-12-13T02:00:05.248Z,14.37
2018-12-13T02:02:33.397Z,12.70
2018-12-13T02:05:01.509Z,12.90
2018-12-13T02:07:29.549Z,11.33
2018-12-13T02:09:57.618Z,10.57
2018-12-13T02:12:25.681Z,10.20
2018-12-13T02:14:53.755Z,13.40
2018-12-13T02:17:21.808Z,10.77
2018-12-13T02:19:49.868Z,9.83
2018-12-13T02:22:17.924Z,10.20
2018-12-13T02:24:45.954Z,11.33
2018-12-13T02:27:14.065Z,11.70
2018-12-13T02:29:42.109Z,11.87
2018-12-13T02:32:10.261Z,9.20
2018-12-13T02:34:38.325Z,9.37
2018-12-13T02:37:06.551Z,9.33
2018-12-13T02:39:34.746Z,11.13
2018-12-13T02:42:02.921Z,9.67
2018-12-13T02:44:30.933Z,10.27
2018-12-13T02:46:59.066Z,9.47
2018-12-13T02:49:27.101Z,10.00
2018-12-13T02:51:55.174Z,9.77
2018-12-13T02:54:23.215Z,11.40
2018-12-13T02:56:51.280Z,9.73
2018-12-13T02:59:19.312Z,11.93
2018-12-13T03:01:47.361Z,10.63
2018-12-13T03:04:15.449Z,10.00
2018-12-13T03:06:43.527Z,12.90
2018-12-13T03:09:11.620Z,10.23
2018-12-13T03:11:39.673Z,10.60
2018-12-13T03:14:07.791Z,11.47
2018-12-13T03:16:35.836Z,11.87
2018-12-13T03:19:03.891Z,10.63
2018-12-13T03:21:31.951Z,14.40
2018-12-13T03:24:00.014Z,13.60
2018-12-13T03:26:28.077Z,14.67
2018-12-13T03:28:56.158Z,12.97
2018-12-13T03:31:24.203Z,14.23
2018-12-13T03:33:52.310Z,13.57
2018-12-13T03:36:20.372Z,13.40
2018-12-13T03:38:48.453Z,17.20
2018-12-13T03:41:16.548Z,17.43
2018-12-13T03:43:44.611Z,18.37
2018-12-13T03:46:12.673Z,19.80
2018-12-13T03:48:40.761Z,19.20
2018-12-13T03:51:08.833Z,19.23
2018-12-13T03:53:36.918Z,18.70
2018-12-13T03:56:04.993Z,20.17
2018-12-13T03:58:33.027Z,20.67
2018-12-13T04:01:01.083Z,19.90
2018-12-13T04:03:29.185Z,21.50
2018-12-13T04:05:57.279Z,21.63
2018-12-13T04:08:25.307Z,24.73
2018-12-13T04:10:53.368Z,21.50
2018-12-13T04:13:21.413Z,21.30
2018-12-13T04:15:49.455Z,22.50
2018-12-13T04:18:17.663Z,23.30
2018-12-13T04:20:45.842Z,21.90
2018-12-13T04:23:13.921Z,22.33
2018-12-13T04:25:41.997Z,23.00
2018-12-13T04:28:10.067Z,22.17
2018-12-13T04:30:38.136Z,23.20
2018-12-13T04:33:06.179Z,22.63
2018-12-13T04:35:34.323Z,23.33
2018-12-13T04:38:02.382Z,24.90
2018-12-13T04:40:30.423Z,24.43
2018-12-13T04:42:58.477Z,25.17
2018-12-13T04:45:26.506Z,23.63
2018-12-13T04:47:54.570Z,27.03
2018-12-13T04:50:22.623Z,25.47
2018-12-13T04:52:50.680Z,25.17
2018-12-13T04:55:18.742Z,22.40
2018-12-13T04:57:46.772Z,23.60
2018-12-13T05:00:14.827Z,26.07
2018-12-13T05:02:42.897Z,27.30
2018-12-13T05:05:10.942Z,24.03
2018-12-13T05:07:41.691Z,23.77
2018-12-13T05:10:09.158Z,26.17
2018-12-13T05:12:37.228Z,23.60
2018-12-13T05:15:05.389Z,22.30
2018-12-13T05:17:33.476Z,24.13
2018-12-13T05:20:01.565Z,24.70
2018-12-13T05:22:29.622Z,26.87
2018-12-13T05:24:57.689Z,27.00
2018-12-13T05:27:25.790Z,27.13
2018-12-13T05:29:53.929Z,28.10
2018-12-13T05:32:21.988Z,29.77
2018-12-13T05:34:50.059Z,29.10
2018-12-13T05:37:18.125Z,25.63
2018-12-13T05:39:46.152Z,28.40
2018-12-13T05:42:14.233Z,26.97
2018-12-13T05:44:42.274Z,27.27
2018-12-13T05:47:10.339Z,29.37
2018-12-13T05:49:38.427Z,29.70
2018-12-13T05:52:06.464Z,28.27
2018-12-13T05:54:34.536Z,29.17
2018-12-13T05:57:02.582Z,30.93
2018-12-13T05:59:30.646Z,30.23
2018-12-13T06:01:58.717Z,30.87
2018-12-13T06:04:26.760Z,35.20
2018-12-13T06:06:54.844Z,37.53
2018-12-13T06:09:23.009Z,36.83
2018-12-13T06:11:51.084Z,34.53
2018-12-13T06:14:19.142Z,34.43
2018-12-13T06:16:47.200Z,34.30
2018-12-13T06:19:15.256Z,33.93
2018-12-13T06:21:43.364Z,34.57
2018-12-13T06:24:11.435Z,34.90
2018-12-13T06:26:39.486Z,35.77
2018-12-13T06:29:07.588Z,35.20
2018-12-13T06:31:35.650Z,34.77
2018-12-13T06:34:03.777Z,35.07
2018-12-13T06:36:31.865Z,41.60
2018-12-13T06:38:59.925Z,35.60
2018-12-13T06:41:28.015Z,36.90
2018-12-13T06:43:56.057Z,41.03
2018-12-13T06:46:24.094Z,40.07
2018-12-13T06:48:52.166Z,45.07
2018-12-13T06:51:20.244Z,43.73
2018-12-13T06:53:48.348Z,42.67
2018-12-13T06:56:16.392Z,32.93
2018-12-13T06:58:44.488Z,41.77
2018-12-13T07:01:12.546Z,41.33
2018-12-13T07:03:40.612Z,42.13
2018-12-13T07:06:08.666Z,43.60
2018-12-13T07:08:36.749Z,40.43
2018-12-13T07:11:04.805Z,41.60
2018-12-13T07:13:32.864Z,39.57
2018-12-13T07:16:00.960Z,42.77
2018-12-13T07:18:28.993Z,34.77
2018-12-13T07:20:57.055Z,36.23
2018-12-13T07:23:25.165Z,38.67
2018-12-13T07:25:53.247Z,38.60
2018-12-13T07:28:21.307Z,34.87
2018-12-13T07:30:49.389Z,37.23
2018-12-13T07:33:17.468Z,33.87
2018-12-13T07:35:45.513Z,38.70
2018-12-13T07:38:14.482Z,34.63
2018-12-13T07:40:42.810Z,32.47
2018-12-13T07:43:10.914Z,39.27
2018-12-13T07:45:38.957Z,33.20
2018-12-13T07:48:07.163Z,31.10
2018-12-13T07:50:35.223Z,31.80
2018-12-13T07:53:03.305Z,30.50
2018-12-13T07:55:31.375Z,31.77
2018-12-13T07:57:59.437Z,29.70
2018-12-13T08:00:27.481Z,29.70
2018-12-13T08:02:55.543Z,32.93
2018-12-13T08:05:23.612Z,32.83
2018-12-13T08:07:51.678Z,30.57
2018-12-13T08:10:19.740Z,30.80
2018-12-13T08:12:47.791Z,33.80
2018-12-13T08:15:15.872Z,33.10
2018-12-13T08:17:43.928Z,33.93
2018-12-13T08:20:11.994Z,29.70
2018-12-13T08:22:40.060Z,32.37
2018-12-13T08:25:08.129Z,33.40
2018-12-13T08:27:36.185Z,28.37
2018-12-13T08:30:04.626Z,33.43
2018-12-13T08:32:32.735Z,31.43
2018-12-13T08:35:00.811Z,29.67
2018-12-13T08:37:28.845Z,30.50
2018-12-13T08:39:56.910Z,32.47
2018-12-13T08:42:24.957Z,26.77
2018-12-13T08:44:53.129Z,29.20
2018-12-13T08:47:21.167Z,28.93
2018-12-13T08:49:49.197Z,25.40
2018-12-13T08:52:17.256Z,26.03
2018-12-13T08:54:45.345Z,25.90
2018-12-13T08:57:13.413Z,26.67
2018-12-13T08:59:41.503Z,26.93
2018-12-13T09:02:09.536Z,30.40
2018-12-13T09:04:37.631Z,26.50
2018-12-13T09:07:05.685Z,25.80
2018-12-13T09:09:33.792Z,27.77
2018-12-13T09:12:01.874Z,27.97
2018-12-13T09:14:29.938Z,31.27
2018-12-13T09:16:58.004Z,29.30
2018-12-13T09:19:26.036Z,30.17
2018-12-13T09:21:54.082Z,31.80
2018-12-13T09:24:22.145Z,32.87
2018-12-13T09:26:50.181Z,28.13
2018-12-13T09:29:18.257Z,28.90
2018-12-13T09:31:46.343Z,29.33
2018-12-13T09:34:14.415Z,35.30
2018-12-13T09:36:42.462Z,31.90
2018-12-13T09:39:10.535Z,32.27
2018-12-13T09:41:38.707Z,32.83
2018-12-13T09:44:08.889Z,28.73
2018-12-13T09:46:36.949Z,32.20
2018-12-13T09:49:05.041Z,30.23
2018-12-13T09:51:33.428Z,33.07
2018-12-13T09:54:01.521Z,32.30
2018-12-13T09:56:29.563Z,30.90
2018-12-13T09:58:57.627Z,30.70
2018-12-13T10:01:25.690Z,26.90
2018-12-13T10:03:53.779Z,26.80
2018-12-13T10:06:21.852Z,28.03
2018-12-13T10:08:49.918Z,29.63
2018-12-13T10:11:17.955Z,30.13
2018-12-13T10:13:46.052Z,27.87
2018-12-13T10:16:14.116Z,29.07
2018-12-13T10:18:42.241Z,26.83
2018-12-13T10:23:48.634Z,31.00
2018-12-13T10:26:16.706Z,24.90
2018-12-13T10:28:44.774Z,29.83
2018-12-13T10:31:13.047Z,24.20
2018-12-13T10:33:41.062Z,25.43
2018-12-13T10:36:09.142Z,24.53
2018-12-13T10:38:37.220Z,26.73
2018-12-13T10:41:05.246Z,26.03
2018-12-13T10:43:33.380Z,25.13
2018-12-13T10:46:01.428Z,25.23
2018-12-13T10:48:29.486Z,24.60
2018-12-13T10:50:57.650Z,22.93
2018-12-13T10:53:25.781Z,25.97
2018-12-13T10:55:53.833Z,22.60
2018-12-13T10:58:21.913Z,23.27
2018-12-13T11:00:55.716Z,22.93
2018-12-13T11:03:29.323Z,20.93
2018-12-13T11:05:57.369Z,21.93
2018-12-13T11:08:25.567Z,23.93
2018-12-13T11:10:53.742Z,22.83
2018-12-13T11:13:22.291Z,20.23
2018-12-13T11:15:50.340Z,20.47
2018-12-13T11:18:18.472Z,24.20
2018-12-13T11:20:46.648Z,18.17
2018-12-13T11:23:14.731Z,20.40
2018-12-13T11:25:42.810Z,19.97
2018-12-13T11:28:16.734Z,19.70
2018-12-13T11:30:44.908Z,21.47
2018-12-13T11:33:13.011Z,19.40
2018-12-13T11:35:41.060Z,18.97
2018-12-13T11:38:09.152Z,20.77
2018-12-13T11:40:37.235Z,19.93
2018-12-13T11:43:05.274Z,19.40
2018-12-13T11:45:33.364Z,22.10
2018-12-13T11:48:01.417Z,19.83
2018-12-13T11:50:29.511Z,19.27
2018-12-13T11:52:57.687Z,20.73
2018-12-13T11:55:31.473Z,18.27
2018-12-13T11:57:59.535Z,18.37
2018-12-13T12:00:27.665Z,20.73
2018-12-13T12:02:55.717Z,21.77
2018-12-13T12:05:23.785Z,16.77
2018-12-13T12:07:51.912Z,16.83
2018-12-13T12:10:20.001Z,16.33
2018-12-13T12:12:48.046Z,16.20
2018-12-13T12:15:16.128Z,22.13
2018-12-13T12:17:44.216Z,16.60
2018-12-13T12:20:12.524Z,17.30
2018-12-13T12:22:40.558Z,14.63
2018-12-13T12:25:08.620Z,19.77
2018-12-13T12:27:36.704Z,16.93
2018-12-13T12:30:05.576Z,18.97
2018-12-13T12:32:33.617Z,19.50
2018-12-13T12:35:01.707Z,18.33
2018-12-13T12:37:29.935Z,20.37
2018-12-13T12:39:58.014Z,20.67
2018-12-13T12:42:26.092Z,18.60
2018-12-13T12:44:54.130Z,18.43
2018-12-13T12:47:22.200Z,20.50
2018-12-13T12:49:50.275Z,20.97
2018-12-13T12:52:18.335Z,17.70
2018-12-13T12:54:46.387Z,20.87
2018-12-13T12:57:14.440Z,19.07
2018-12-13T12:59:42.522Z,20.10
2018-12-13T13:02:10.581Z,18.67
2018-12-13T13:04:38.643Z,24.53
2018-12-13T13:07:06.680Z,25.30
2018-12-13T13:09:34.732Z,21.60
2018-12-13T13:12:02.853Z,22.47
2018-12-13T13:14:30.892Z,25.07
2018-12-13T13:16:58.964Z,24.60
2018-12-13T13:19:27.021Z,25.30
2018-12-13T13:21:55.090Z,21.80
2018-12-13T13:24:23.134Z,21.30
2018-12-13T13:26:51.217Z,23.40
2018-12-13T13:29:19.271Z,20.73
2018-12-13T13:31:47.350Z,31.13
2018-12-13T13:34:15.473Z,23.03
2018-12-13T13:36:43.515Z,21.90
2018-12-13T13:39:11.589Z,25.70
2018-12-13T13:41:39.641Z,23.77
2018-12-13T13:44:07.705Z,31.53
2018-12-13T13:46:35.797Z,32.13
2018-12-13T13:49:03.849Z,31.63
2018-12-13T13:51:31.899Z,30.30
2018-12-13T13:53:59.929Z,30.73
2018-12-13T13:56:27.988Z,30.30
2018-12-13T13:58:56.089Z,30.43
2018-12-13T14:01:24.140Z,27.87
2018-12-13T14:03:52.190Z,28.17
2018-12-13T14:06:20.260Z,30.03
2018-12-13T14:08:48.330Z,26.80
2018-12-13T14:11:16.392Z,28.20
2018-12-13T14:13:44.444Z,29.67
2018-12-13T14:16:12.516Z,29.67
2018-12-13T14:18:40.612Z,33.77
2018-12-13T14:21:08.677Z,30.80
2018-12-13T14:23:36.762Z,27.97
2018-12-13T14:26:04.846Z,31.67
2018-12-13T14:28:32.989Z,30.57
2018-12-13T14:31:01.167Z,33.30
2018-12-13T14:33:29.257Z,32.53
2018-12-13T14:35:57.329Z,30.80
2018-12-13T14:38:25.377Z,35.07
2018-12-13T14:40:53.439Z,33.53
2018-12-13T14:43:21.511Z,32.07
2018-12-13T14:45:49.558Z,31.93
2018-12-13T14:48:17.661Z,31.13
2018-12-13T14:50:45.772Z,31.57
2018-12-13T14:53:13.895Z,38.47
2018-12-13T14:55:41.970Z,32.83
2018-12-13T14:58:10.163Z,39.67
2018-12-13T15:00:38.252Z,36.83
2018-12-13T15:03:06.342Z,35.73
2018-12-13T15:05:34.462Z,31.83
2018-12-13T15:08:02.537Z,35.85
2018-12-13T15:10:30.579Z,37.57
2018-12-13T15:12:58.636Z,31.17
2018-12-13T15:15:26.683Z,34.77
2018-12-13T15:17:54.775Z,37.50
2018-12-13T15:20:22.818Z,35.23
2018-12-13T15:22:50.884Z,33.57
2018-12-13T15:25:18.942Z,35.63
2018-12-13T15:27:47.016Z,38.27
2018-12-13T15:30:15.180Z,36.87
2018-12-13T15:32:43.251Z,32.83
2018-12-13T15:35:11.350Z,38.07
2018-12-13T15:37:39.413Z,35.47
2018-12-13T15:40:07.527Z,34.40
2018-12-13T15:42:35.600Z,34.83
2018-12-13T15:45:03.880Z,40.00
2018-12-13T15:47:31.997Z,35.70
2018-12-13T15:50:00.065Z,38.23
2018-12-13T15:52:28.096Z,42.23
2018-12-13T15:54:56.175Z,40.07
2018-12-13T15:57:24.263Z,43.57
2018-12-13T15:59:52.343Z,36.80
2018-12-13T16:02:20.408Z,36.40
2018-12-13T16:04:48.457Z,36.93
2018-12-13T16:07:16.557Z,39.03
2018-12-13T16:09:44.605Z,36.93
2018-12-13T16:12:12.671Z,39.90
2018-12-13T16:14:40.751Z,37.17
2018-12-13T16:17:08.944Z,35.40
2018-12-13T16:19:36.999Z,34.97
2018-12-13T16:22:05.088Z,35.90
2018-12-13T16:24:33.281Z,38.23
2018-12-13T16:27:01.338Z,35.43
2018-12-13T16:29:29.413Z,38.67
2018-12-13T16:31:57.501Z,39.97
2018-12-13T16:34:25.579Z,37.00
2018-12-13T16:36:53.620Z,35.63
2018-12-13T16:39:21.660Z,37.97
2018-12-13T16:41:49.749Z,37.10
2018-12-13T16:44:17.799Z,33.10
2018-12-13T16:46:45.845Z,38.93
2018-12-13T16:49:13.895Z,35.83
2018-12-13T16:51:41.963Z,34.67
2018-12-13T16:54:10.029Z,35.17
2018-12-13T16:56:38.127Z,35.47
2018-12-13T16:59:06.202Z,36.53
2018-12-13T17:01:34.286Z,35.87
2018-12-13T17:04:02.381Z,35.63
2018-12-13T17:06:30.459Z,36.83
2018-12-13T17:08:58.516Z,38.20
2018-12-13T17:11:26.609Z,37.40
2018-12-13T17:13:54.671Z,38.90
2018-12-13T17:16:22.746Z,35.80
2018-12-13T17:18:51.106Z,35.23
2018-12-13T17:23:59.316Z,35.10
2018-12-13T17:26:27.419Z,36.23
2018-12-13T17:28:55.494Z,40.03
2018-12-13T17:31:23.522Z,36.57
2018-12-13T17:33:51.598Z,41.20
2018-12-13T17:36:19.696Z,39.37
2018-12-13T17:38:47.966Z,39.20
2018-12-13T17:41:16.057Z,39.23
2018-12-13T17:43:44.084Z,39.90
2018-12-13T17:46:12.152Z,37.27
2018-12-13T17:48:40.186Z,38.10
2018-12-13T17:51:08.278Z,39.67
2018-12-13T17:53:36.355Z,36.77
2018-12-13T17:56:04.465Z,35.90
2018-12-13T17:58:32.585Z,34.33
2018-12-13T18:01:00.674Z,36.47
2018-12-13T18:03:28.718Z,35.50
2018-12-13T18:05:56.788Z,33.60
2018-12-13T18:08:24.845Z,35.90
2018-12-13T18:10:52.929Z,38.03
2018-12-13T18:13:21.005Z,35.67
2018-12-13T18:15:49.124Z,34.43
2018-12-13T18:18:17.237Z,33.50
2018-12-13T18:20:45.288Z,36.20
2018-12-13T18:23:13.373Z,30.67
2018-12-13T18:25:41.405Z,34.70
2018-12-13T18:28:09.455Z,37.07
2018-12-13T18:30:37.519Z,35.47
2018-12-13T18:33:05.619Z,32.23
2018-12-13T18:35:33.692Z,34.70
2018-12-13T18:38:01.815Z,35.50
2018-12-13T18:40:35.511Z,38.60
2018-12-13T18:42:59.963Z,45.93
2018-12-13T18:45:30.343Z,46.77
2018-12-13T18:47:58.435Z,41.00
2018-12-13T18:50:26.551Z,42.43
2018-12-13T18:52:54.613Z,39.60
2018-12-13T18:55:22.664Z,41.37
2018-12-13T18:57:50.970Z,40.50
2018-12-13T19:00:19.048Z,41.80
2018-12-13T19:02:47.204Z,42.53
2018-12-13T19:05:15.243Z,42.60
2018-12-13T19:07:43.332Z,45.03
2018-12-13T19:10:11.432Z,39.63
2018-12-13T19:12:39.483Z,42.00
2018-12-13T19:15:07.670Z,42.17
2018-12-13T19:17:35.733Z,40.47
2018-12-13T19:20:03.962Z,42.87
2018-12-13T19:22:32.008Z,46.37
2018-12-13T19:25:00.083Z,45.00
2018-12-13T19:27:28.180Z,44.33
2018-12-13T19:29:56.233Z,43.37
2018-12-13T19:32:24.339Z,43.20
2018-12-13T19:34:52.412Z,40.10
2018-12-13T19:37:20.488Z,38.17
2018-12-13T19:39:48.556Z,41.40
2018-12-13T19:42:16.615Z,39.30
2018-12-13T19:44:44.787Z,38.83
2018-12-13T19:47:12.834Z,35.50
2018-12-13T19:49:40.896Z,38.67
2018-12-13T19:52:08.943Z,40.37
2018-12-13T19:54:37.032Z,36.67
2018-12-13T19:57:05.101Z,38.97
2018-12-13T19:59:33.202Z,39.73
2018-12-13T20:02:01.357Z,38.63
2018-12-13T20:04:29.433Z,38.10
2018-12-13T20:06:57.543Z,39.17
2018-12-13T20:09:25.724Z,40.50
2018-12-13T20:11:53.785Z,39.03
2018-12-13T20:14:21.825Z,34.43
2018-12-13T20:16:49.893Z,33.87
2018-12-13T20:19:17.994Z,32.40
2018-12-13T20:21:46.204Z,33.53
2018-12-13T20:24:14.288Z,33.47
2018-12-13T20:26:42.534Z,33.93
2018-12-13T20:29:10.570Z,36.67
2018-12-13T20:31:38.633Z,32.83
2018-12-13T20:34:06.698Z,36.73
2018-12-13T20:36:34.779Z,33.30
2018-12-13T20:39:03.591Z,30.73
2018-12-13T20:41:31.643Z,37.47
2018-12-13T20:43:59.718Z,35.03
2018-12-13T20:46:27.776Z,37.77
2018-12-13T20:48:55.883Z,39.20
2018-12-13T20:51:23.964Z,30.43
2018-12-13T20:53:52.089Z,39.23
2018-12-13T20:56:20.152Z,38.27
2018-12-13T20:58:48.288Z,43.33
2018-12-13T21:01:16.361Z,39.93
2018-12-13T21:03:44.491Z,40.13
2018-12-13T21:06:12.557Z,40.80
2018-12-13T21:08:40.662Z,36.43
2018-12-13T21:11:08.823Z,37.70
2018-12-13T21:13:36.874Z,34.30
2018-12-13T21:16:04.953Z,37.00
2018-12-13T21:18:33.060Z,40.13
2018-12-13T21:21:01.124Z,37.47
2018-12-13T21:23:29.209Z,37.30
2018-12-13T21:25:57.282Z,38.33
2018-12-13T21:28:25.388Z,42.20
2018-12-13T21:30:53.428Z,36.47
2018-12-13T21:33:21.509Z,39.07
2018-12-13T21:35:49.610Z,34.00
2018-12-13T21:38:17.665Z,31.20
2018-12-13T21:40:45.763Z,38.23
2018-12-13T21:43:13.840Z,34.83
2018-12-13T21:45:41.885Z,34.80
2018-12-13T21:48:09.956Z,37.60
2018-12-13T21:50:38.031Z,35.13
2018-12-13T21:53:06.135Z,37.80
2018-12-13T21:55:34.178Z,37.87
2018-12-13T21:58:02.326Z,38.93
2018-12-13T22:00:30.438Z,38.93
2018-12-13T22:02:58.490Z,39.20
2018-12-13T22:05:26.532Z,40.07
2018-12-13T22:07:54.598Z,39.03
2018-12-13T22:10:22.691Z,38.93
2018-12-13T22:12:50.758Z,43.77
2018-12-13T22:15:18.947Z,39.20
2018-12-13T22:17:47.018Z,39.20
2018-12-13T22:20:15.098Z,41.70
2018-12-13T22:22:43.163Z,37.27
2018-12-13T22:25:11.297Z,38.23
2018-12-13T22:27:39.437Z,37.27
2018-12-13T22:30:07.638Z,43.27
2018-12-13T22:32:35.725Z,43.33
2018-12-13T22:35:03.914Z,38.07
2018-12-13T22:37:31.987Z,41.50
2018-12-13T22:40:00.082Z,40.67
2018-12-13T22:42:28.151Z,37.53
2018-12-13T22:44:56.268Z,37.97
2018-12-13T22:47:24.333Z,35.33
2018-12-13T22:49:52.432Z,37.20
2018-12-13T22:52:20.515Z,36.93
2018-12-13T22:54:48.593Z,39.93
2018-12-13T22:57:16.663Z,34.90
2018-12-13T22:59:44.728Z,38.00
2018-12-13T23:02:12.797Z,34.80
2018-12-13T23:04:40.899Z,37.13
2018-12-13T23:07:08.949Z,34.57
2018-12-13T23:09:36.997Z,37.83
2018-12-13T23:12:05.083Z,35.80
2018-12-13T23:14:33.324Z,36.57
2018-12-13T23:17:01.535Z,33.30
2018-12-13T23:19:29.582Z,36.10
2018-12-13T23:21:57.640Z,36.20
2018-12-13T23:24:25.685Z,35.73
2018-12-13T23:26:53.745Z,40.87
2018-12-13T23:29:21.799Z,43.63
2018-12-13T23:31:49.899Z,44.30
2018-12-13T23:34:17.987Z,46.13
2018-12-13T23:36:46.040Z,42.93
2018-12-13T23:39:14.124Z,45.73
2018-12-13T23:41:42.190Z,41.73
2018-12-13T23:44:10.248Z,41.37
2018-12-13T23:46:38.302Z,42.57
2018-12-13T23:49:06.392Z,43.23
2018-12-13T23:51:34.448Z,39.83
2018-12-13T23:54:02.556Z,42.27
2018-12-13T23:56:30.616Z,40.57
2018-12-13T23:58:58.900Z,38.03
